• Join FlightAware (Why Join?)
  • Login
  • US Flag 
 
11:14PM EST


 

Airport Tracker/Info


-or-


 

Live Flight TrackerFlight Track Log ✈ N121JM ✈ 23-Sep-2013 ✈ KILG - KATL

Flight Track Log - Related Links

Times and Time Zones

All times are in EDT time to prevent confusion due to time zone crossing. See the N121JM flight status page for this flight to view local times or setup timezone preferences in your user account.

Time Position Orientation Groundspeed Altitude Reporting Facility
EDT Latitude Longitude Course Direction KTS MPH feet Rate Location/Type
10:01AM 39.7614 -75.6750 309° West 212 244 3,600  Level New York Center
10:02AM 39.8042 -75.7483 307° West 234 269 5,600 2,520 Climbing New York Center
10:03AM 39.8403 -75.8294 300° West 262 302 8,700 2,160 Climbing New York Center
10:04AM 39.8281 -75.9178 260° West 262 302 10,000 1,500 Climbing New York Center
10:05AM 39.7733 -76.0272 237° Southwest 287 330 11,700 1,560 Climbing New York Center
10:06AM 39.7144 -76.1308 234° Southwest 326 375 13,200 1,680 Climbing New York Center
10:07AM 39.6558 -76.2261 231° Southwest 372 428 15,100 1,680 Climbing New York Center
10:09AM 39.5483 -76.4125 233° Southwest 381 438 17,800 1,680 Climbing Washington Center
10:10AM 39.4703 -76.5325 230° Southwest 392 451 19,700 1,680 Climbing Washington Center
10:11AM 39.4006 -76.6469 232° Southwest 406 467 21,300 1,500 Climbing Washington Center
10:12AM 39.3286 -76.7642 232° Southwest 412 474 22,700 1,320 Climbing Washington Center
10:13AM 39.2544 -76.8861 232° Southwest 422 486 24,000 1,200 Climbing Washington Center
10:14AM 39.1950 -76.9817 231° Southwest 428 493 25,100 1,320 Climbing Washington Center
10:15AM 39.1036 -77.1297 232° Southwest 440 506 26,800 1,560 Climbing Washington Center
10:16AM 39.0250 -77.2536 231° Southwest 445 512 28,200 1,380 Climbing Washington Center
10:17AM 38.9481 -77.3772 231° Southwest 450 518 29,600 1,200 Climbing Washington Center
10:18AM 38.8775 -77.4903 231° Southwest 450 518 30,700 1,200 Climbing Washington Center
10:19AM 38.8006 -77.6133 231° Southwest 456 525 32,100 1,380 Climbing Washington Center
10:20AM 38.7192 -77.7389 230° Southwest 456 525 33,500 1,440 Climbing Washington Center
10:21AM 38.6439 -77.8617 232° Southwest 456 525 35,000 1,380 Climbing Washington Center
10:22AM 38.5706 -77.9817 232° Southwest 451 519 36,300 1,200 Climbing Washington Center
10:23AM 38.4994 -78.1039 233° Southwest 446 513 37,400 960 Climbing Washington Center
10:24AM 38.4300 -78.2236 234° Southwest 433 498 38,300 840 Climbing Washington Center
10:25AM 38.3608 -78.3403 233° Southwest 428 493 39,100 660 Climbing Washington Center
10:26AM 38.2911 -78.4594 233° Southwest 428 493 39,700 420 Climbing Washington Center
10:27AM 38.2214 -78.5861 235° Southwest 422 486 40,000 120 Climbing Washington Center
10:28AM 38.1561 -78.6944 233° Southwest 422 486 40,000  Level Washington Center
10:29AM 38.0842 -78.8128 232° Southwest 427 491 40,000  Level Washington Center
10:30AM 38.0078 -78.9389 232° Southwest 432 497 40,000  Level Washington Center
10:31AM 37.9356 -79.0594 233° Southwest 438 504 40,000  Level Washington Center
10:32AM 37.8483 -79.1869 229° Southwest 443 510 40,000  Level Washington Center
10:33AM 37.7633 -79.3036 227° Southwest 443 510 40,000  Level Washington Center
10:34AM 37.6783 -79.4200 227° Southwest 455 524 40,000  Level Washington Center
10:35AM 37.5933 -79.5364 227° Southwest 455 524 40,000  Level Washington Center
10:36AM 37.5103 -79.6500 227° Southwest 455 524 40,000  Level Washington Center
10:37AM 37.4225 -79.7733 228° Southwest 455 524 40,000  Level Washington Center
10:39AM 37.2553 -79.9947 227° Southwest 464 534 40,000  Level Atlanta Center
10:45AM 36.7574 -80.6647 227° Southwest 444 511 40,000  Level FlightAware ADS-B
10:46AM 36.6578 -80.7911 227° Southwest 435 501 40,000  Level Atlanta Center
10:47AM 36.5750 -80.9056 228° Southwest 435 501 40,000  Level Atlanta Center
10:48AM 36.4903 -81.0200 227° Southwest 440 506 40,000 -540 Level Atlanta Center
10:53AM 36.0282 -81.6199 227° Southwest 455 524 36,700 -660 Descending FlightAware ADS-B
10:54AM 35.9460 -81.7260 226° Southwest 455 524 36,000 -480 Descending FlightAware ADS-B
10:55AM 35.8987 -81.7866 226° Southwest 456 525 36,000  Level FlightAware ADS-B
10:55AM 35.8529 -81.8453 226° Southwest 455 524 36,000  Level FlightAware ADS-B
10:56AM 35.7998 -81.9136 226° Southwest 453 521 36,000  Level FlightAware ADS-B
10:57AM 35.7175 -82.0185 226° Southwest 453 521 36,000 -120 Level FlightAware ADS-B
10:57AM 35.6727 -82.0757 226° Southwest 455 524 35,900 -480 Descending FlightAware ADS-B
10:58AM 35.6156 -82.1479 226° Southwest 455 524 35,500 -600 Descending FlightAware ADS-B
10:59AM 35.5706 -82.2051 226° Southwest 456 525 35,200 -540 Descending FlightAware ADS-B
10:59AM 35.5256 -82.2623 226° Southwest 458 527 35,000 -420 Descending FlightAware ADS-B
11:00AM 35.4808 -82.3191 226° Southwest 460 529 34,800 -720 Descending FlightAware ADS-B
11:00AM 35.4342 -82.3781 226° Southwest 463 533 34,300 -1,020 Descending FlightAware ADS-B
11:01AM 35.3840 -82.4414 226° Southwest 465 535 33,700 -1,020 Descending FlightAware ADS-B
11:01AM 35.3346 -82.4983 223° Southwest 468 539 33,200 -1,080 Descending FlightAware ADS-B
11:02AM 35.2654 -82.5736 222° Southwest 472 543 32,400 -1,200 Descending FlightAware ADS-B
11:02AM 35.2160 -82.6276 222° Southwest 472 543 31,800 -1,260 Descending FlightAware ADS-B
11:03AM 35.1617 -82.6871 222° Southwest 473 544 31,100 -1,260 Descending FlightAware ADS-B
11:04AM 35.1117 -82.7417 222° Southwest 480 552 30,500 -1,200 Descending FlightAware ADS-B
11:04AM 35.0621 -82.7963 222° Southwest 476 548 29,900 -1,200 Descending FlightAware ADS-B
11:05AM 35.0114 -82.8514 222° Southwest 466 536 29,300 -1,200 Descending FlightAware ADS-B
11:05AM 34.9628 -82.9047 222° Southwest 462 532 28,700 -1,260 Descending FlightAware ADS-B
11:06AM 34.9118 -82.9600 222° Southwest 464 534 28,000 -1,260 Descending FlightAware ADS-B
11:06AM 34.8625 -83.0134 222° Southwest 458 527 27,400 -1,200 Descending FlightAware ADS-B
11:07AM 34.8012 -83.0800 222° Southwest 445 512 26,600 -1,380 Descending FlightAware ADS-B
11:07AM 34.7519 -83.1331 222° Southwest 442 509 25,800 -1,560 Descending FlightAware ADS-B
11:08AM 34.7054 -83.1835 222° Southwest 434 499 25,000 -1,500 Descending FlightAware ADS-B
11:08AM 34.6549 -83.2379 222° Southwest 428 493 24,200 -1,500 Descending FlightAware ADS-B
11:09AM 34.6086 -83.2876 221° Southwest 424 488 23,400 -1,560 Descending FlightAware ADS-B
11:09AM 34.5642 -83.3354 222° Southwest 421 484 22,600 -1,500 Descending FlightAware ADS-B
11:10AM 34.5083 -83.3908 222° Southwest 428 493 21,700 -1,560 Descending Atlanta Center
11:11AM 34.4253 -83.4797 221° Southwest 416 479 20,100 -1,680 Descending Atlanta Center
11:12AM 34.3444 -83.5683 222° Southwest 405 466 18,400 -1,500 Descending Atlanta Center
11:13AM 34.2611 -83.6542 220° Southwest 405 466 17,100 -1,680 Descending Atlanta Center
11:14AM 34.1822 -83.7425 223° Southwest 395 455 15,100 -1,560 Descending Atlanta Center
11:15AM 34.1156 -83.8156 222° Southwest 382 440 14,000 -840 Descending Atlanta Center
11:16AM 34.0383 -83.8983 222° Southwest 371 427 13,500 -1,020 Descending Atlanta Center
11:17AM 33.9633 -83.9711 219° Southwest 361 415 12,000 -780 Descending Atlanta Center
11:18AM 33.8667 -84.0500 214° Southwest 359 413 12,000  Level Atlanta TRACON
11:19AM 33.7667 -84.1000 203° Southwest 357 411 12,000  Level Atlanta TRACON
11:20AM 33.7333 -84.2000 248° West 304 350 12,000  Level Atlanta TRACON
11:21AM 33.7333 -84.3000 270° West 293 337 12,000 -720 Level Atlanta TRACON
11:22AM 33.7333 -84.4000 270° West 305 351 10,600 -1,560 Descending Atlanta TRACON
11:23AM 33.7333 -84.5000 270° West 299 344 8,900 -1,200 Descending Atlanta TRACON
11:24AM 33.7333 -84.5833 270° West 229 264 8,200 -1,020 Descending Atlanta TRACON
11:25AM 33.7333 -84.6500 270° West 202 232 6,900 -1,440 Descending Atlanta TRACON
11:26AM 33.7167 -84.7000 248° West 197 227 5,400 -960 Descending Atlanta TRACON
11:27AM 33.6667 -84.6833 164° South 181 208 5,000 -360 Descending Atlanta TRACON
11:28AM 33.6500 -84.6333 112° Southeast 193 222 4,700 -780 Descending Atlanta TRACON
11:29AM 33.6500 -84.5667 90° East 188 216 3,500 -1,200 Descending Atlanta TRACON
11:30AM 33.6500 -84.5167 90° East 173 199 2,300 -1,140 Descending Atlanta TRACON
11:31AM 33.6500 -84.4500 90° East 157 181 1,300 -1,020 Descending Atlanta TRACON
11:33AM 33.6367 -84.4279 103° East  Level Estimated
11:40AM 33.6367 -84.4279 103° East  Level Estimated